createdAt,value
2019-03-27T00:00:33.535Z,41.30
2019-03-27T00:03:02.249Z,41.20
2019-03-27T00:05:30.984Z,40.70
2019-03-27T00:07:59.638Z,40.50
2019-03-27T00:10:28.305Z,40.80
2019-03-27T00:12:56.975Z,40.70
2019-03-27T00:15:25.714Z,40.70
2019-03-27T00:17:54.536Z,40.60
2019-03-27T00:20:23.226Z,40.80
2019-03-27T00:22:53.216Z,40.90
2019-03-27T00:25:21.902Z,41.00
2019-03-27T00:27:50.571Z,41.20
2019-03-27T00:30:19.369Z,41.00
2019-03-27T00:32:48.038Z,41.20
2019-03-27T00:35:16.693Z,41.30
2019-03-27T00:37:46.089Z,41.40
2019-03-27T00:40:14.879Z,41.20
2019-03-27T00:42:43.670Z,41.30
2019-03-27T00:45:25.443Z,41.40
2019-03-27T00:47:42.931Z,41.60
2019-03-27T00:50:14.763Z,41.70
2019-03-27T00:52:43.409Z,41.80
2019-03-27T00:55:13.986Z,41.80
2019-03-27T00:57:42.654Z,41.70
2019-03-27T01:00:17.381Z,41.60
2019-03-27T01:02:47.687Z,41.80
2019-03-27T01:05:16.396Z,42.00
2019-03-27T01:07:45.148Z,42.20
2019-03-27T01:10:14.454Z,42.60
2019-03-27T01:12:43.103Z,42.60
2019-03-27T01:15:11.816Z,42.50
2019-03-27T01:17:40.568Z,42.30
2019-03-27T01:20:09.463Z,42.10
2019-03-27T01:22:38.188Z,42.00
2019-03-27T01:25:07.392Z,41.90
2019-03-27T01:27:37.407Z,42.30
2019-03-27T01:30:06.754Z,42.40
2019-03-27T01:32:35.415Z,42.50
2019-03-27T01:35:05.677Z,42.50
2019-03-27T01:37:34.342Z,42.50
2019-03-27T01:40:03.142Z,42.60
2019-03-27T01:42:31.798Z,42.40
2019-03-27T01:45:00.455Z,42.20
2019-03-27T01:47:29.123Z,42.40
2019-03-27T01:49:57.854Z,42.30
2019-03-27T01:52:27.684Z,42.20
2019-03-27T01:54:56.326Z,42.30
2019-03-27T01:57:25.053Z,42.40
2019-03-27T01:59:53.755Z,42.50
2019-03-27T02:02:22.477Z,42.50
2019-03-27T02:04:51.140Z,42.70
2019-03-27T02:07:19.781Z,43.10
2019-03-27T02:09:48.442Z,43.00
2019-03-27T02:12:18.726Z,43.20
2019-03-27T02:14:47.403Z,43.30
2019-03-27T02:17:16.126Z,43.40
2019-03-27T02:19:44.857Z,43.60
2019-03-27T02:22:13.579Z,43.50
2019-03-27T02:24:42.237Z,43.60
2019-03-27T02:27:10.966Z,43.80
2019-03-27T02:29:39.627Z,44.10
2019-03-27T02:32:08.344Z,44.10
2019-03-27T02:34:37.129Z,44.40
2019-03-27T02:37:05.863Z,44.30
2019-03-27T02:39:34.542Z,44.20
2019-03-27T02:42:03.287Z,44.20
2019-03-27T02:44:33.280Z,44.40
2019-03-27T02:47:01.969Z,44.40
2019-03-27T02:49:31.530Z,44.60
2019-03-27T02:52:00.261Z,44.90
2019-03-27T02:54:28.911Z,45.00
2019-03-27T02:56:57.687Z,45.20
2019-03-27T02:59:26.416Z,45.20
2019-03-27T03:01:58.133Z,45.80
2019-03-27T03:04:26.835Z,45.00
2019-03-27T03:06:55.483Z,44.70
2019-03-27T03:09:24.256Z,44.90
2019-03-27T03:11:52.903Z,45.10
2019-03-27T03:14:21.544Z,45.00
2019-03-27T03:16:52.135Z,44.90
2019-03-27T03:19:20.783Z,44.70
2019-03-27T03:21:49.499Z,44.90
2019-03-27T03:24:18.181Z,45.20
2019-03-27T03:26:50.897Z,45.50
2019-03-27T03:29:17.805Z,45.50
2019-03-27T03:31:46.666Z,45.60
2019-03-27T03:34:15.311Z,45.60
2019-03-27T03:36:43.965Z,45.70
2019-03-27T03:39:12.655Z,45.90
2019-03-27T03:41:41.405Z,46.00
2019-03-27T03:44:11.429Z,46.20
2019-03-27T03:46:40.655Z,46.70
2019-03-27T03:49:10.508Z,47.40
2019-03-27T03:51:39.817Z,47.70
2019-03-27T03:54:08.815Z,48.20
2019-03-27T03:56:41.031Z,48.40
2019-03-27T03:59:12.271Z,48.50
2019-03-27T04:01:43.419Z,48.40
2019-03-27T04:04:13.536Z,48.50
2019-03-27T04:06:43.826Z,48.60
2019-03-27T04:09:12.474Z,48.30
2019-03-27T04:11:42.683Z,48.20
2019-03-27T04:14:11.386Z,48.00
2019-03-27T04:16:40.146Z,47.80
2019-03-27T04:19:08.794Z,47.80
2019-03-27T04:21:37.613Z,48.20
2019-03-27T04:24:06.345Z,48.10
2019-03-27T04:26:35.084Z,48.10
2019-03-27T04:29:04.016Z,48.30
2019-03-27T04:31:32.751Z,48.70
2019-03-27T04:34:03.210Z,48.70
2019-03-27T04:36:34.883Z,48.40
2019-03-27T04:39:04.826Z,48.30
2019-03-27T04:41:33.467Z,48.30
2019-03-27T04:44:02.695Z,48.60
2019-03-27T04:46:31.431Z,48.60
2019-03-27T04:49:07.637Z,48.70
2019-03-27T04:51:35.413Z,48.70
2019-03-27T04:54:04.073Z,48.70
2019-03-27T04:56:32.865Z,48.70
2019-03-27T04:59:01.558Z,48.50
2019-03-27T05:01:30.281Z,48.40
2019-03-27T05:03:59.593Z,48.60
2019-03-27T05:06:28.247Z,48.40
2019-03-27T05:08:56.898Z,48.50
2019-03-27T05:11:25.622Z,48.60
2019-03-27T05:13:54.277Z,48.50
2019-03-27T05:16:22.938Z,48.60
2019-03-27T05:18:51.624Z,48.60
2019-03-27T05:21:21.937Z,48.50
2019-03-27T05:23:51.877Z,48.70
2019-03-27T05:26:20.622Z,48.90
2019-03-27T05:28:49.342Z,48.90
2019-03-27T05:31:18.020Z,49.10
2019-03-27T05:33:47.934Z,48.80
2019-03-27T05:36:19.797Z,49.00
2019-03-27T05:38:48.434Z,48.70
2019-03-27T05:41:17.093Z,49.60
2019-03-27T05:43:48.556Z,48.90
2019-03-27T05:46:17.727Z,49.10
2019-03-27T05:48:50.846Z,48.60
2019-03-27T05:51:19.549Z,48.40
2019-03-27T05:53:48.415Z,48.40
2019-03-27T05:56:17.131Z,48.20
2019-03-27T05:58:47.339Z,48.30
2019-03-27T06:01:15.993Z,48.30
2019-03-27T06:03:44.708Z,48.90
2019-03-27T06:06:13.518Z,48.00
2019-03-27T06:08:42.215Z,48.00
2019-03-27T06:11:10.912Z,48.50
2019-03-27T06:13:39.578Z,48.00
2019-03-27T06:16:08.293Z,48.00
2019-03-27T06:18:38.502Z,48.50
2019-03-27T06:21:07.146Z,48.00
2019-03-27T06:23:42.936Z,47.80
2019-03-27T06:26:11.591Z,47.70
2019-03-27T06:28:43.162Z,48.00
2019-03-27T06:31:12.382Z,47.90
2019-03-27T06:33:41.015Z,48.10
2019-03-27T06:36:09.687Z,47.80
2019-03-27T06:38:38.332Z,47.30
2019-03-27T06:41:10.161Z,47.20
2019-03-27T06:43:38.814Z,47.30
2019-03-27T06:46:07.484Z,47.60
2019-03-27T06:48:36.201Z,47.70
2019-03-27T06:51:06.737Z,47.30
2019-03-27T06:53:35.369Z,47.00
2019-03-27T06:56:04.187Z,47.20
2019-03-27T06:58:34.497Z,46.50
2019-03-27T07:01:05.730Z,46.30
2019-03-27T07:03:34.737Z,46.00
2019-03-27T07:06:03.519Z,45.90
2019-03-27T07:08:33.704Z,46.30
2019-03-27T07:11:02.377Z,46.40
2019-03-27T07:13:31.039Z,46.30
2019-03-27T07:16:02.681Z,46.30
2019-03-27T07:18:39.888Z,46.20
2019-03-27T07:21:03.633Z,45.60
2019-03-27T07:23:32.414Z,45.30
2019-03-27T07:26:01.069Z,45.00
2019-03-27T07:28:31.427Z,44.70
2019-03-27T07:31:00.252Z,44.70
2019-03-27T07:33:31.469Z,44.60
2019-03-27T07:36:01.663Z,44.50
2019-03-27T07:38:30.321Z,44.00
2019-03-27T07:40:58.962Z,43.20
2019-03-27T07:43:28.563Z,43.20
2019-03-27T07:45:57.242Z,42.40
2019-03-27T07:48:25.870Z,41.60
2019-03-27T07:50:54.514Z,40.00
2019-03-27T07:53:23.988Z,40.20
2019-03-27T07:55:52.712Z,39.80
2019-03-27T07:58:23.019Z,39.50
2019-03-27T08:00:52.239Z,40.00
2019-03-27T08:03:25.187Z,40.30
2019-03-27T08:05:55.537Z,39.40
2019-03-27T08:08:25.520Z,38.80
2019-03-27T08:10:54.242Z,38.60
2019-03-27T08:13:22.893Z,38.20
2019-03-27T08:15:51.694Z,38.00
2019-03-27T08:18:20.432Z,37.90
2019-03-27T08:20:49.083Z,38.70
2019-03-27T08:23:19.280Z,38.30
2019-03-27T08:25:47.937Z,38.50
2019-03-27T08:28:16.732Z,38.30
2019-03-27T08:30:45.389Z,37.70
2019-03-27T08:33:14.032Z,37.10
2019-03-27T08:35:42.730Z,35.90
2019-03-27T08:38:11.448Z,35.50
2019-03-27T08:40:40.167Z,34.60
2019-03-27T08:43:20.507Z,33.80
2019-03-27T08:45:39.271Z,33.40
2019-03-27T08:48:07.991Z,33.50
2019-03-27T08:50:38.278Z,32.50
2019-03-27T08:53:07.010Z,33.00
2019-03-27T08:55:35.667Z,33.20
2019-03-27T08:58:04.459Z,32.40
2019-03-27T09:00:47.553Z,31.70
2019-03-27T09:03:16.548Z,30.90
2019-03-27T09:05:45.257Z,30.80
2019-03-27T09:08:14.187Z,30.40
2019-03-27T09:10:42.970Z,29.80
2019-03-27T09:13:11.712Z,30.00
2019-03-27T09:15:43.076Z,29.30
2019-03-27T09:18:11.824Z,28.80
2019-03-27T09:20:40.537Z,29.40
2019-03-27T09:23:09.291Z,29.40
2019-03-27T09:25:53.031Z,28.80
2019-03-27T09:28:25.111Z,26.90
2019-03-27T09:30:57.593Z,26.50
2019-03-27T09:33:26.354Z,26.30
2019-03-27T09:35:55.086Z,26.40
2019-03-27T09:38:25.146Z,25.70
2019-03-27T09:40:53.892Z,26.00
2019-03-27T09:43:22.586Z,25.90
2019-03-27T09:45:51.375Z,24.20
2019-03-27T09:48:20.152Z,24.10
2019-03-27T09:50:48.882Z,25.00
2019-03-27T09:53:17.618Z,24.70
2019-03-27T09:55:46.355Z,24.10
2019-03-27T09:58:17.782Z,24.00
2019-03-27T10:00:54.333Z,24.40
2019-03-27T10:03:22.979Z,24.50
2019-03-27T10:05:51.781Z,23.40
2019-03-27T10:08:20.451Z,23.40
2019-03-27T10:10:50.840Z,23.90
2019-03-27T10:13:20.060Z,23.50
2019-03-27T10:15:48.787Z,24.30
2019-03-27T10:18:17.442Z,24.60
2019-03-27T10:20:46.168Z,24.30
2019-03-27T10:23:16.186Z,24.00
2019-03-27T10:25:44.851Z,24.00
2019-03-27T10:28:13.511Z,23.30
2019-03-27T10:30:46.723Z,23.10
2019-03-27T10:33:16.993Z,23.40
2019-03-27T10:35:45.703Z,22.70
2019-03-27T10:38:14.361Z,22.60
2019-03-27T10:40:43.090Z,22.40
2019-03-27T10:43:13.371Z,22.50
2019-03-27T10:45:42.090Z,22.70
2019-03-27T10:48:10.749Z,22.60
2019-03-27T10:50:39.393Z,22.20
2019-03-27T10:53:09.759Z,22.10
2019-03-27T10:55:38.507Z,22.00
2019-03-27T10:58:07.916Z,22.70
2019-03-27T11:00:38.098Z,22.40
2019-03-27T11:03:06.751Z,22.50
2019-03-27T11:05:35.489Z,22.20
2019-03-27T11:08:04.283Z,22.00
2019-03-27T11:10:33.035Z,20.70
2019-03-27T11:13:01.685Z,20.70
2019-03-27T11:15:30.428Z,20.50
2019-03-27T11:17:59.814Z,19.50
2019-03-27T11:20:31.253Z,20.10
2019-03-27T11:23:01.494Z,19.90
2019-03-27T11:25:33.394Z,19.60
2019-03-27T11:28:02.146Z,19.40
2019-03-27T11:30:38.512Z,19.80
2019-03-27T11:33:07.393Z,19.00
2019-03-27T11:35:36.041Z,18.70
2019-03-27T11:38:04.794Z,18.20
2019-03-27T11:40:33.517Z,18.70
2019-03-27T11:43:06.956Z,18.20
2019-03-27T11:45:35.776Z,18.30
2019-03-27T11:48:08.071Z,18.60
2019-03-27T11:50:44.889Z,18.70
2019-03-27T11:53:06.432Z,18.70
2019-03-27T11:55:35.143Z,18.90
2019-03-27T11:58:21.805Z,19.80
2019-03-27T12:01:08.715Z,20.10
2019-03-27T12:03:41.424Z,20.30
2019-03-27T12:06:11.628Z,19.50
2019-03-27T12:08:40.732Z,18.20
2019-03-27T12:11:09.388Z,17.30
2019-03-27T12:13:40.793Z,17.10
2019-03-27T12:16:09.570Z,17.80
2019-03-27T12:18:38.441Z,19.10
2019-03-27T12:21:07.293Z,19.20
2019-03-27T12:23:36.168Z,17.70
2019-03-27T12:26:05.006Z,17.40
2019-03-27T12:28:33.863Z,17.10
2019-03-27T12:31:02.704Z,17.20
2019-03-27T12:33:31.355Z,17.60
2019-03-27T12:36:00.008Z,17.60
2019-03-27T12:38:28.679Z,17.20
2019-03-27T12:40:57.336Z,17.30
2019-03-27T12:43:26.070Z,17.00
2019-03-27T12:45:56.719Z,16.10
2019-03-27T12:48:25.363Z,15.80
2019-03-27T12:50:54.101Z,17.70
2019-03-27T12:53:22.746Z,17.60
2019-03-27T12:55:51.545Z,17.10
2019-03-27T12:58:20.194Z,17.10
2019-03-27T13:00:48.975Z,16.70
2019-03-27T13:03:17.628Z,17.70
2019-03-27T13:05:46.614Z,18.20
2019-03-27T13:08:15.379Z,17.40
2019-03-27T13:10:44.033Z,17.90
2019-03-27T13:13:12.700Z,17.90
2019-03-27T13:15:41.503Z,17.10
2019-03-27T13:18:11.704Z,17.40
2019-03-27T13:20:40.423Z,17.40
2019-03-27T13:23:09.079Z,16.90
2019-03-27T13:25:37.793Z,16.90
2019-03-27T13:28:06.595Z,15.90
2019-03-27T13:30:35.317Z,15.80
2019-03-27T13:33:04.143Z,15.80
2019-03-27T13:35:32.879Z,14.80
2019-03-27T13:38:01.607Z,16.00
2019-03-27T13:40:31.811Z,16.10
2019-03-27T13:43:00.522Z,16.20
2019-03-27T13:45:29.347Z,15.80
2019-03-27T13:47:58.099Z,15.70
2019-03-27T13:50:26.739Z,15.30
2019-03-27T13:52:55.391Z,15.20
2019-03-27T13:55:24.145Z,15.20
2019-03-27T13:57:52.789Z,15.40
2019-03-27T14:00:21.599Z,15.50
2019-03-27T14:02:50.363Z,15.50
2019-03-27T14:05:19.189Z,15.60
2019-03-27T14:07:47.936Z,16.10
2019-03-27T14:10:16.963Z,16.20
2019-03-27T14:12:46.602Z,16.20
2019-03-27T14:15:15.826Z,15.60
2019-03-27T14:17:45.463Z,15.10
2019-03-27T14:20:14.813Z,15.30
2019-03-27T14:22:43.647Z,15.10
2019-03-27T14:25:12.936Z,15.20
2019-03-27T14:27:45.051Z,15.00
2019-03-27T14:30:15.227Z,15.30
2019-03-27T14:32:43.949Z,15.20
2019-03-27T14:35:12.938Z,15.10
2019-03-27T14:37:41.683Z,15.20
2019-03-27T14:40:10.682Z,15.00
2019-03-27T14:42:39.488Z,15.10
2019-03-27T14:45:08.905Z,15.70
2019-03-27T14:47:37.895Z,15.00
2019-03-27T14:50:08.280Z,15.20
2019-03-27T14:52:39.891Z,14.60
2019-03-27T14:55:08.875Z,15.00
2019-03-27T14:57:38.188Z,14.50
2019-03-27T15:00:11.256Z,14.70
2019-03-27T15:02:40.000Z,15.30
2019-03-27T15:05:10.255Z,15.90
2019-03-27T15:07:39.009Z,15.40
2019-03-27T15:10:09.130Z,15.20
2019-03-27T15:12:38.015Z,15.10
2019-03-27T15:15:09.291Z,15.90
2019-03-27T15:17:38.085Z,16.40
2019-03-27T15:20:08.746Z,16.20
2019-03-27T15:22:37.580Z,15.50
2019-03-27T15:25:07.206Z,15.10
2019-03-27T15:27:35.923Z,15.20
2019-03-27T15:30:12.474Z,16.00
2019-03-27T15:32:39.436Z,17.00
2019-03-27T15:35:08.412Z,19.00
2019-03-27T15:37:37.171Z,19.90
2019-03-27T15:40:06.854Z,19.20
2019-03-27T15:42:35.757Z,18.10
2019-03-27T15:45:07.837Z,18.20
2019-03-27T15:47:36.572Z,17.00
2019-03-27T15:50:07.792Z,17.00
2019-03-27T15:52:37.166Z,17.00
2019-03-27T15:55:06.723Z,17.00
2019-03-27T15:57:35.380Z,17.10
2019-03-27T16:00:06.167Z,17.00
2019-03-27T16:02:34.900Z,17.60
2019-03-27T16:05:04.243Z,18.70
2019-03-27T16:07:34.243Z,20.10
2019-03-27T16:10:03.002Z,21.30
2019-03-27T16:12:31.742Z,22.30
2019-03-27T16:15:01.438Z,23.10
2019-03-27T16:17:30.096Z,23.80
2019-03-27T16:19:58.827Z,24.00
2019-03-27T16:22:27.558Z,24.10
2019-03-27T16:24:56.229Z,24.10
2019-03-27T16:27:24.887Z,24.30
2019-03-27T16:29:53.547Z,24.40
2019-03-27T16:32:22.278Z,24.80
2019-03-27T16:34:51.007Z,24.80
2019-03-27T16:37:19.815Z,24.70
2019-03-27T16:39:48.573Z,25.10
2019-03-27T16:42:17.235Z,25.40
2019-03-27T16:44:45.902Z,25.70
2019-03-27T16:47:14.627Z,25.80
2019-03-27T16:49:43.399Z,26.20
2019-03-27T16:52:12.178Z,26.30
2019-03-27T16:54:40.995Z,26.10
2019-03-27T16:57:09.637Z,26.20
2019-03-27T16:59:38.292Z,26.20
2019-03-27T17:02:07.139Z,26.40
2019-03-27T17:04:35.778Z,26.50
2019-03-27T17:07:04.577Z,26.60
2019-03-27T17:09:33.254Z,26.70
2019-03-27T17:12:01.991Z,26.50
2019-03-27T17:14:30.726Z,26.80
2019-03-27T17:16:59.589Z,27.60
2019-03-27T17:19:28.279Z,27.60
2019-03-27T17:21:57.001Z,27.70
2019-03-27T17:24:25.710Z,27.50
2019-03-27T17:26:54.356Z,27.60
2019-03-27T17:29:23.107Z,27.70
2019-03-27T17:31:51.789Z,27.60
2019-03-27T17:34:20.455Z,28.00
2019-03-27T17:36:49.223Z,27.90
2019-03-27T17:42:04.003Z,28.10
2019-03-27T17:44:32.666Z,28.40
2019-03-27T17:47:01.321Z,28.80
2019-03-27T17:49:30.123Z,28.80
2019-03-27T17:51:58.863Z,29.00
2019-03-27T17:54:27.522Z,28.90
2019-03-27T17:56:56.190Z,29.00
2019-03-27T17:59:24.945Z,28.70
2019-03-27T18:01:53.608Z,29.00
2019-03-27T18:04:22.276Z,29.00
2019-03-27T18:06:50.945Z,29.30
2019-03-27T18:09:19.596Z,29.70
2019-03-27T18:11:48.372Z,30.00
2019-03-27T18:14:17.029Z,29.90
2019-03-27T18:16:45.829Z,30.20
2019-03-27T18:19:14.524Z,30.40
2019-03-27T18:21:43.186Z,30.50
2019-03-27T18:24:11.942Z,30.50
2019-03-27T18:26:40.600Z,30.60
2019-03-27T18:29:09.398Z,30.90
2019-03-27T18:31:38.134Z,31.30
2019-03-27T18:34:06.891Z,31.40
2019-03-27T18:36:35.619Z,31.80
2019-03-27T18:39:07.054Z,32.10
2019-03-27T18:41:35.803Z,32.70
2019-03-27T18:44:04.713Z,33.20
2019-03-27T18:46:33.374Z,32.70
2019-03-27T18:49:02.038Z,32.30
2019-03-27T18:51:30.697Z,32.60
2019-03-27T18:54:00.216Z,32.80
2019-03-27T18:56:29.079Z,32.90
2019-03-27T18:58:57.866Z,33.00
2019-03-27T19:01:26.650Z,33.10
2019-03-27T19:03:55.298Z,33.30
2019-03-27T19:06:24.067Z,33.20
2019-03-27T19:08:52.726Z,34.20
2019-03-27T19:11:21.492Z,35.20
2019-03-27T19:13:50.161Z,34.70
2019-03-27T19:16:18.902Z,34.40
2019-03-27T19:18:47.568Z,35.00
2019-03-27T19:21:16.219Z,35.50
2019-03-27T19:23:44.932Z,35.60
2019-03-27T19:26:13.794Z,35.40
2019-03-27T19:28:42.542Z,35.60
2019-03-27T19:31:11.316Z,35.10
2019-03-27T19:33:40.619Z,35.90
2019-03-27T19:36:09.457Z,36.40
2019-03-27T19:38:38.213Z,36.40
2019-03-27T19:41:06.957Z,36.80
2019-03-27T19:43:35.720Z,37.70
2019-03-27T19:46:04.529Z,38.20
2019-03-27T19:48:35.772Z,38.70
2019-03-27T19:51:04.591Z,39.20
2019-03-27T19:53:33.434Z,39.40
2019-03-27T19:56:02.082Z,39.60
2019-03-27T19:58:30.746Z,40.10
2019-03-27T20:00:59.554Z,39.80
2019-03-27T20:03:28.314Z,39.90
2019-03-27T20:05:56.961Z,39.20
2019-03-27T20:08:25.651Z,39.40
2019-03-27T20:10:54.399Z,39.60
2019-03-27T20:13:23.063Z,39.30
2019-03-27T20:15:51.828Z,39.50
2019-03-27T20:18:20.520Z,39.30
2019-03-27T20:20:49.197Z,39.20
2019-03-27T20:23:17.927Z,39.50
2019-03-27T20:25:46.672Z,39.20
2019-03-27T20:28:15.389Z,39.00
2019-03-27T20:30:44.278Z,38.90
2019-03-27T20:33:12.983Z,39.20
2019-03-27T20:35:41.715Z,39.40
2019-03-27T20:38:10.370Z,39.10
2019-03-27T20:40:39.247Z,39.30
2019-03-27T20:43:07.910Z,39.80
2019-03-27T20:45:36.781Z,40.00
2019-03-27T20:48:05.503Z,40.30
2019-03-27T20:50:34.203Z,40.10
2019-03-27T20:53:02.957Z,40.30
2019-03-27T20:55:31.690Z,40.40
2019-03-27T20:58:00.459Z,40.20
2019-03-27T21:00:29.228Z,40.40
2019-03-27T21:02:57.898Z,40.70
2019-03-27T21:05:26.557Z,40.50
2019-03-27T21:07:55.225Z,40.30
2019-03-27T21:10:24.015Z,40.50
2019-03-27T21:12:52.851Z,40.50
2019-03-27T21:15:21.628Z,40.50
2019-03-27T21:17:50.446Z,40.40
2019-03-27T21:20:19.103Z,40.40
2019-03-27T21:22:47.845Z,40.50
2019-03-27T21:25:16.817Z,40.80
2019-03-27T21:27:45.523Z,40.20
2019-03-27T21:30:15.014Z,40.30
2019-03-27T21:32:43.631Z,40.40
2019-03-27T21:35:12.415Z,40.40
2019-03-27T21:37:41.101Z,40.40
2019-03-27T21:40:10.069Z,40.40
2019-03-27T21:42:38.730Z,40.60
2019-03-27T21:45:09.250Z,40.50
2019-03-27T21:47:37.931Z,40.80
2019-03-27T21:50:07.803Z,40.70
2019-03-27T21:52:36.440Z,40.60
2019-03-27T21:55:07.205Z,40.40
2019-03-27T21:57:35.831Z,40.80
2019-03-27T22:00:07.306Z,40.90
2019-03-27T22:02:35.927Z,41.00
2019-03-27T22:05:06.407Z,41.10
2019-03-27T22:07:35.143Z,41.20
2019-03-27T22:10:05.610Z,41.10
2019-03-27T22:12:34.302Z,41.40
2019-03-27T22:15:03.063Z,41.40
2019-03-27T22:17:31.727Z,41.40
2019-03-27T22:20:00.359Z,41.20
2019-03-27T22:22:29.067Z,41.30
2019-03-27T22:24:58.103Z,41.80
2019-03-27T22:27:26.711Z,41.90
2019-03-27T22:29:55.341Z,41.90
2019-03-27T22:32:23.991Z,42.30
2019-03-27T22:34:52.603Z,42.20
2019-03-27T22:37:21.219Z,42.30
2019-03-27T22:39:49.918Z,42.40
2019-03-27T22:42:18.565Z,42.80
2019-03-27T22:44:47.187Z,42.70
2019-03-27T22:47:15.871Z,42.80
2019-03-27T22:49:44.567Z,43.30
2019-03-27T22:52:13.209Z,42.80
2019-03-27T22:54:41.836Z,42.80
2019-03-27T22:57:10.521Z,43.10
2019-03-27T22:59:39.143Z,43.20
2019-03-27T23:02:07.848Z,43.30
2019-03-27T23:04:36.492Z,43.40
2019-03-27T23:07:05.245Z,43.70
2019-03-27T23:09:33.858Z,43.40
2019-03-27T23:12:02.563Z,43.70
2019-03-27T23:14:31.275Z,44.20
2019-03-27T23:16:59.983Z,44.20
2019-03-27T23:19:28.707Z,44.50
2019-03-27T23:21:57.332Z,44.80
2019-03-27T23:24:26.091Z,45.00
2019-03-27T23:26:54.792Z,45.00
2019-03-27T23:29:23.549Z,45.30
2019-03-27T23:31:52.185Z,45.70
2019-03-27T23:34:20.797Z,46.00
2019-03-27T23:36:49.427Z,46.40
2019-03-27T23:39:18.088Z,46.60
2019-03-27T23:41:46.698Z,47.00
2019-03-27T23:44:15.330Z,47.50
2019-03-27T23:46:44.022Z,48.10
2019-03-27T23:49:12.658Z,48.60
2019-03-27T23:51:41.419Z,48.80
2019-03-27T23:54:10.115Z,49.30
2019-03-27T23:56:38.730Z,49.90
2019-03-27T23:59:07.427Z,50.20
